< < Back
Terminal Aerodrome Forecast


Current Version              Previous Versions:   1  2  3  4  5  6  7  8  9  

Terminal Aerodrome Forecast

425
FTUS44 KMRX 280525
TAFCHA
TAF
KCHA 280525Z 2806/2906 VRB03KT P6SM VCSH SCT040 BKN120
      TEMPO 2806/2809 BKN035
     FM280900 VRB03KT 6SM BR VCSH SCT015 BKN100
     FM281300 VRB04KT P6SM SCT025 OVC080
     FM281500 VRB04KT P6SM VCTS SCT035CB BKN100
     FM281900 05006KT 4SM -TSRA BR BKN030CB OVC070
     FM290000 15004KT P6SM VCSH BKN040 OVC080=



Latest METAR

598
SAUS80 KWBC 281200 RRB
MTRCHA
METAR KCHA 281153Z 31003KT 10SM BKN080 OVC100 20/19 A3022 RMK AO2
RAE1057 SLP226 P0000 60001 70001 T02000189 10211 20194
51021


USA.gov is the U.S. government's official web portal to all federal, state and local government web resources and services.